createdAt,value
2022-08-05T00:02:07.765Z,21.18
2022-08-05T00:04:45.710Z,21.20
2022-08-05T00:08:00.465Z,21.18
2022-08-05T00:10:21.710Z,21.16
2022-08-05T00:12:59.584Z,21.11
2022-08-05T00:15:55.906Z,21.07
2022-08-05T00:18:26.292Z,21.04
2022-08-05T00:21:01.313Z,21.03
2022-08-05T00:23:46.968Z,21.02
2022-08-05T00:26:26.881Z,20.99
2022-08-05T00:28:59.370Z,21.00
2022-08-05T00:31:53.317Z,20.93
2022-08-05T00:34:55.332Z,20.95
2022-08-05T00:37:18.152Z,20.94
2022-08-05T00:39:57.939Z,20.94
2022-08-05T00:42:33.089Z,20.91
2022-08-05T00:45:08.649Z,20.92
2022-08-05T00:47:56.509Z,20.92
2022-08-05T00:50:30.141Z,20.90
2022-08-05T00:53:02.877Z,20.89
2022-08-05T00:55:43.522Z,20.88
2022-08-05T00:58:17.325Z,20.87
2022-08-05T01:00:51.818Z,20.86
2022-08-05T01:03:31.096Z,20.86
2022-08-05T01:06:13.967Z,20.84
2022-08-05T01:08:48.008Z,20.83
2022-08-05T01:11:36.970Z,20.78
2022-08-05T01:14:15.561Z,20.80
2022-08-05T01:16:52.575Z,20.81
2022-08-05T01:19:56.230Z,20.82
2022-08-05T01:22:43.369Z,20.82
2022-08-05T01:25:42.850Z,20.82
2022-08-05T01:28:35.881Z,20.81
2022-08-05T01:31:12.436Z,20.79
2022-08-05T01:33:52.009Z,20.77
2022-08-05T01:36:31.774Z,20.78
2022-08-05T01:39:05.415Z,20.77
2022-08-05T01:41:44.438Z,20.77
2022-08-05T01:44:20.108Z,20.76
2022-08-05T01:46:59.029Z,20.75
2022-08-05T01:50:00.462Z,20.72
2022-08-05T01:52:27.182Z,20.72
2022-08-05T01:55:04.671Z,20.72
2022-08-05T01:58:10.211Z,20.73
2022-08-05T02:00:39.100Z,20.70
2022-08-05T02:03:24.375Z,20.71
2022-08-05T02:06:03.409Z,20.72
2022-08-05T02:08:58.164Z,20.73
2022-08-05T02:11:42.326Z,20.73
2022-08-05T02:14:25.460Z,20.73
2022-08-05T02:17:05.589Z,20.74
2022-08-05T02:19:47.615Z,20.76
2022-08-05T02:22:27.461Z,20.76
2022-08-05T02:25:04.938Z,20.75
2022-08-05T02:27:57.991Z,20.76
2022-08-05T02:30:38.733Z,20.77
2022-08-05T02:33:36.023Z,20.80
2022-08-05T02:36:15.580Z,20.83
2022-08-05T02:38:53.414Z,20.85
2022-08-05T02:41:28.924Z,20.83
2022-08-05T02:44:13.496Z,20.90
2022-08-05T02:46:58.410Z,20.87
2022-08-05T02:49:40.384Z,20.91
2022-08-05T02:52:29.403Z,20.94
2022-08-05T02:55:06.554Z,20.99
2022-08-05T02:58:20.482Z,20.97
2022-08-05T03:00:39.069Z,21.04
2022-08-05T03:03:15.229Z,21.06
2022-08-05T03:06:56.560Z,21.08
2022-08-05T03:08:44.203Z,21.10
2022-08-05T03:11:55.079Z,21.13
2022-08-05T03:14:13.303Z,21.16
2022-08-05T03:16:46.266Z,21.19
2022-08-05T03:19:33.494Z,21.23
2022-08-05T03:22:16.001Z,21.23
2022-08-05T03:24:52.124Z,21.24
2022-08-05T03:27:39.193Z,21.29
2022-08-05T03:30:18.701Z,21.31
2022-08-05T03:32:54.556Z,21.38
2022-08-05T03:35:28.411Z,21.42
2022-08-05T03:38:02.884Z,21.47
2022-08-05T03:40:35.814Z,21.51
2022-08-05T03:43:58.986Z,21.55
2022-08-05T03:46:01.722Z,21.58
2022-08-05T03:48:35.607Z,21.61
2022-08-05T03:52:37.936Z,21.64
2022-08-05T03:55:53.957Z,21.72
2022-08-05T03:57:16.453Z,21.78
2022-08-05T03:59:55.869Z,21.86
2022-08-05T04:02:38.628Z,21.94
2022-08-05T04:05:19.358Z,22.03
2022-08-05T04:07:58.660Z,22.05
2022-08-05T04:10:37.940Z,22.22
2022-08-05T04:13:11.727Z,22.30
2022-08-05T04:16:02.701Z,22.36
2022-08-05T04:18:38.300Z,22.42
2022-08-05T04:21:12.250Z,22.46
2022-08-05T04:24:08.881Z,22.49
2022-08-05T04:26:43.445Z,22.52
2022-08-05T04:29:15.918Z,22.55
2022-08-05T04:31:49.821Z,22.59
2022-08-05T04:34:32.532Z,22.64
2022-08-05T04:37:07.210Z,22.69
2022-08-05T04:39:40.108Z,22.74
2022-08-05T04:42:14.085Z,22.77
2022-08-05T04:44:46.513Z,22.78
2022-08-05T04:47:20.324Z,22.80
2022-08-05T04:50:01.422Z,22.81
2022-08-05T04:52:36.163Z,22.82
2022-08-05T04:55:14.001Z,22.83
2022-08-05T04:57:54.194Z,22.81
2022-08-05T05:00:27.137Z,22.82
2022-08-05T05:03:03.740Z,22.80
2022-08-05T05:06:39.890Z,22.81
2022-08-05T05:08:30.607Z,22.80
2022-08-05T05:11:03.250Z,22.78
2022-08-05T05:13:42.960Z,22.77
2022-08-05T05:16:16.268Z,22.77
2022-08-05T05:19:09.210Z,22.76
2022-08-05T05:21:44.932Z,22.75
2022-08-05T05:24:21.780Z,22.74
2022-08-05T05:26:54.559Z,22.74
2022-08-05T05:30:03.321Z,22.74
2022-08-05T05:32:23.316Z,22.72
2022-08-05T05:34:55.909Z,22.76
2022-08-05T05:37:58.846Z,22.79
2022-08-05T05:40:26.226Z,22.81
2022-08-05T05:43:02.130Z,22.84
2022-08-05T05:45:36.210Z,22.88
2022-08-05T05:48:20.497Z,22.91
2022-08-05T05:51:00.237Z,22.95
2022-08-05T05:53:58.147Z,22.95
2022-08-05T05:56:34.780Z,22.96
2022-08-05T05:59:08.220Z,22.98
2022-08-05T06:01:57.087Z,23.03
2022-08-05T06:04:30.740Z,23.02
2022-08-05T06:07:03.286Z,23.03
2022-08-05T06:09:59.945Z,23.10
2022-08-05T06:12:28.386Z,23.18
2022-08-05T06:15:01.523Z,23.31
2022-08-05T06:17:52.821Z,23.38
2022-08-05T06:20:26.171Z,23.67
2022-08-05T06:23:01.349Z,23.88
2022-08-05T06:26:12.286Z,24.05
2022-08-05T06:28:29.452Z,24.20
2022-08-05T06:31:11.221Z,24.29
2022-08-05T06:34:07.839Z,24.36
2022-08-05T06:36:56.801Z,24.40
2022-08-05T06:39:30.336Z,24.38
2022-08-05T06:42:04.382Z,24.43
2022-08-05T06:44:37.370Z,24.41
2022-08-05T06:48:11.545Z,24.43
2022-08-05T06:50:05.529Z,24.44
2022-08-05T06:52:40.500Z,24.47
2022-08-05T06:55:13.175Z,24.48
2022-08-05T06:57:57.716Z,24.48
2022-08-05T07:00:41.176Z,24.45
2022-08-05T07:03:13.711Z,24.42
2022-08-05T07:05:50.684Z,24.39
2022-08-05T07:08:23.349Z,24.28
2022-08-05T07:10:57.683Z,24.37
2022-08-05T07:13:58.792Z,24.33
2022-08-05T07:18:02.350Z,24.30
2022-08-05T07:22:37.452Z,24.26
2022-08-05T07:25:53.878Z,24.26
2022-08-05T07:28:08.245Z,24.26
2022-08-05T07:30:50.385Z,24.28
2022-08-05T07:33:36.762Z,24.30
2022-08-05T07:36:20.697Z,24.32
2022-08-05T07:38:56.016Z,24.37
2022-08-05T07:42:12.684Z,24.42
2022-08-05T07:44:21.190Z,24.49
2022-08-05T07:46:54.074Z,24.55
2022-08-05T07:49:26.536Z,24.59
2022-08-05T07:51:59.579Z,24.60
2022-08-05T07:54:33.818Z,24.68
2022-08-05T07:57:41.452Z,24.71
2022-08-05T08:00:11.437Z,24.74
2022-08-05T08:03:13.900Z,24.78
2022-08-05T08:05:41.168Z,24.81
2022-08-05T08:08:16.079Z,24.82
2022-08-05T08:10:55.769Z,24.89
2022-08-05T08:13:28.986Z,24.92
2022-08-05T08:16:50.351Z,24.95
2022-08-05T08:18:54.734Z,24.98
2022-08-05T08:21:27.362Z,24.93
2022-08-05T08:24:04.926Z,24.95
2022-08-05T08:26:41.413Z,25.01
2022-08-05T08:29:45.155Z,25.05
2022-08-05T08:32:06.831Z,25.11
2022-08-05T08:34:43.658Z,25.18
2022-08-05T08:37:18.791Z,25.25
2022-08-05T08:39:51.435Z,25.32
2022-08-05T08:42:34.073Z,25.38
2022-08-05T08:45:26.959Z,25.41
2022-08-05T08:48:12.468Z,25.44
2022-08-05T08:51:22.275Z,25.48
2022-08-05T08:53:50.150Z,25.51
2022-08-05T08:56:26.958Z,25.53
2022-08-05T08:59:01.373Z,25.60
2022-08-05T09:01:43.164Z,25.66
2022-08-05T09:04:30.714Z,25.76
2022-08-05T09:07:04.565Z,25.85
2022-08-05T09:09:51.930Z,25.91
2022-08-05T09:12:27.389Z,25.91
2022-08-05T09:15:06.155Z,25.99
2022-08-05T09:17:49.318Z,26.05
2022-08-05T09:20:37.910Z,26.05
2022-08-05T09:23:18.929Z,26.06
2022-08-05T09:26:06.002Z,26.04
2022-08-05T09:28:40.882Z,25.97
2022-08-05T09:32:38.796Z,26.00
2022-08-05T09:34:13.047Z,25.99
2022-08-05T09:36:55.923Z,25.97
2022-08-05T09:39:45.387Z,25.98
2022-08-05T09:42:23.992Z,26.01
2022-08-05T09:45:17.710Z,26.08
2022-08-05T09:48:01.106Z,26.12
2022-08-05T09:50:44.889Z,26.17
2022-08-05T09:53:26.128Z,26.21
2022-08-05T09:56:12.833Z,26.20
2022-08-05T09:58:57.001Z,26.19
2022-08-05T10:01:36.403Z,26.17
2022-08-05T10:04:16.205Z,26.15
2022-08-05T10:06:59.374Z,26.14
2022-08-05T10:09:44.848Z,26.13
2022-08-05T10:12:18.525Z,26.14
2022-08-05T10:15:25.744Z,26.15
2022-08-05T10:18:23.089Z,26.19
2022-08-05T10:21:08.463Z,26.23
2022-08-05T10:23:55.498Z,26.30
2022-08-05T10:26:33.942Z,26.35
2022-08-05T10:29:07.931Z,26.41
2022-08-05T10:33:02.199Z,26.44
2022-08-05T10:34:33.570Z,26.49
2022-08-05T10:37:07.624Z,26.56
2022-08-05T10:40:04.019Z,26.61
2022-08-05T10:42:38.814Z,26.62
2022-08-05T10:45:24.020Z,26.71
2022-08-05T10:48:52.395Z,26.77
2022-08-05T10:51:53.223Z,26.81
2022-08-05T10:55:04.974Z,26.88
2022-08-05T10:57:41.398Z,26.93
2022-08-05T11:00:20.415Z,27.01
2022-08-05T11:03:25.144Z,27.10
2022-08-05T11:06:08.200Z,27.21
2022-08-05T11:09:45.087Z,27.30
2022-08-05T11:12:54.352Z,27.36
2022-08-05T11:16:00.938Z,27.41
2022-08-05T11:18:30.221Z,27.49
2022-08-05T11:21:31.243Z,27.59
2022-08-05T11:24:30.112Z,27.69
2022-08-05T11:27:50.082Z,27.80
2022-08-05T11:30:25.992Z,27.87
2022-08-05T11:33:34.582Z,27.92
2022-08-05T11:36:34.654Z,27.94
2022-08-05T11:39:13.741Z,27.96
2022-08-05T11:42:01.755Z,27.98
2022-08-05T11:44:52.844Z,28.00
2022-08-05T11:47:48.462Z,27.99
2022-08-05T11:50:20.628Z,27.96
2022-08-05T11:52:57.559Z,27.98
2022-08-05T11:55:31.595Z,27.97
2022-08-05T11:58:12.010Z,27.97
2022-08-05T12:00:47.011Z,27.99
2022-08-05T12:03:32.080Z,28.00
2022-08-05T12:06:10.060Z,28.02
2022-08-05T12:08:49.712Z,28.02
2022-08-05T12:11:24.205Z,28.03
2022-08-05T12:14:04.508Z,28.03
2022-08-05T12:16:38.697Z,28.02
2022-08-05T12:20:27.016Z,27.97
2022-08-05T12:22:09.595Z,27.96
2022-08-05T12:24:49.431Z,27.96
2022-08-05T12:27:25.381Z,27.94
2022-08-05T12:30:03.517Z,27.94
2022-08-05T12:32:46.139Z,27.92
2022-08-05T12:35:37.208Z,27.89
2022-08-05T12:38:12.547Z,27.85
2022-08-05T12:40:47.866Z,27.80
2022-08-05T12:43:22.852Z,27.78
2022-08-05T12:45:57.180Z,27.75
2022-08-05T12:48:39.617Z,27.72
2022-08-05T12:52:10.255Z,27.67
2022-08-05T12:54:16.797Z,27.63
2022-08-05T12:56:58.134Z,27.59
2022-08-05T13:00:08.465Z,27.56
2022-08-05T13:02:30.610Z,27.52
2022-08-05T13:05:07.285Z,27.53
2022-08-05T13:07:59.517Z,27.46
2022-08-05T13:10:33.510Z,27.48
2022-08-05T13:13:08.924Z,27.43
2022-08-05T13:15:50.493Z,27.44
2022-08-05T13:18:24.084Z,27.41
2022-08-05T13:20:57.193Z,27.40
2022-08-05T13:23:31.109Z,27.39
2022-08-05T13:26:05.750Z,27.32
2022-08-05T13:28:43.986Z,27.35
2022-08-05T13:31:17.030Z,27.34
2022-08-05T13:34:24.931Z,27.32
2022-08-05T13:37:00.351Z,27.30
2022-08-05T13:40:15.839Z,27.30
2022-08-05T13:42:27.445Z,27.30
2022-08-05T13:45:00.909Z,27.30
2022-08-05T13:48:08.679Z,27.28
2022-08-05T13:50:27.104Z,27.27
2022-08-05T13:52:59.711Z,27.27
2022-08-05T13:55:41.114Z,27.25
2022-08-05T13:58:30.531Z,27.22
2022-08-05T14:01:04.307Z,27.24
2022-08-05T14:03:37.022Z,27.24
2022-08-05T14:06:25.660Z,27.23
2022-08-05T14:08:59.662Z,27.22
2022-08-05T14:11:33.603Z,27.19
2022-08-05T14:14:30.848Z,27.19
2022-08-05T14:17:06.845Z,27.16
2022-08-05T14:19:54.366Z,27.14
2022-08-05T14:22:30.274Z,27.12
2022-08-05T14:25:06.188Z,27.07
2022-08-05T14:27:53.409Z,27.07
2022-08-05T14:30:28.163Z,27.05
2022-08-05T14:33:00.927Z,27.05
2022-08-05T14:35:50.509Z,27.05
2022-08-05T14:38:33.152Z,27.04
2022-08-05T14:41:07.827Z,27.02
2022-08-05T14:44:00.309Z,26.99
2022-08-05T14:46:35.549Z,26.97
2022-08-05T14:49:08.471Z,26.94
2022-08-05T14:51:42.878Z,26.95
2022-08-05T14:54:27.945Z,26.96
2022-08-05T14:57:05.365Z,26.93
2022-08-05T14:59:44.270Z,26.92
2022-08-05T15:02:17.982Z,26.90
2022-08-05T15:04:53.078Z,26.90
2022-08-05T15:08:11.607Z,26.91
2022-08-05T15:10:18.722Z,26.95
2022-08-05T15:13:04.157Z,26.98
2022-08-05T15:15:55.801Z,27.02
2022-08-05T15:18:29.118Z,27.04
2022-08-05T15:21:07.447Z,27.02
2022-08-05T15:23:40.496Z,27.02
2022-08-05T15:26:12.989Z,27.05
2022-08-05T15:28:45.602Z,27.05
2022-08-05T15:31:34.797Z,27.01
2022-08-05T15:34:32.567Z,26.97
2022-08-05T15:37:03.456Z,26.95
2022-08-05T15:41:03.676Z,26.90
2022-08-05T15:42:56.151Z,26.87
2022-08-05T15:45:38.691Z,26.75
2022-08-05T15:48:14.491Z,26.80
2022-08-05T15:50:48.338Z,26.77
2022-08-05T15:53:21.437Z,26.78
2022-08-05T15:56:04.189Z,26.77
2022-08-05T15:58:38.160Z,26.76
2022-08-05T16:01:16.478Z,26.75
2022-08-05T16:03:51.881Z,26.73
2022-08-05T16:06:24.342Z,26.68
2022-08-05T16:08:56.962Z,26.63
2022-08-05T16:11:42.329Z,26.59
2022-08-05T16:14:17.248Z,26.55
2022-08-05T16:16:50.598Z,26.53
2022-08-05T16:20:03.131Z,26.47
2022-08-05T16:22:17.372Z,26.46
2022-08-05T16:24:51.695Z,26.42
2022-08-05T16:27:47.027Z,26.40
2022-08-05T16:30:26.399Z,26.35
2022-08-05T16:33:02.073Z,26.32
2022-08-05T16:35:42.443Z,26.29
2022-08-05T16:38:23.939Z,26.23
2022-08-05T16:41:00.720Z,26.21
2022-08-05T16:43:35.410Z,26.17
2022-08-05T16:46:23.505Z,26.14
2022-08-05T16:48:57.225Z,26.10
2022-08-05T16:51:42.680Z,26.07
2022-08-05T16:54:28.923Z,26.01
2022-08-05T16:57:04.576Z,25.96
2022-08-05T17:00:00.387Z,25.92
2022-08-05T17:02:37.148Z,25.87
2022-08-05T17:05:10.159Z,25.83
2022-08-05T17:07:54.584Z,25.77
2022-08-05T17:10:30.487Z,25.71
2022-08-05T17:13:03.236Z,25.66
2022-08-05T17:15:48.541Z,25.59
2022-08-05T17:18:23.720Z,25.51
2022-08-05T17:20:56.298Z,25.44
2022-08-05T17:24:05.054Z,25.38
2022-08-05T17:26:22.749Z,25.32
2022-08-05T17:28:56.100Z,25.27
2022-08-05T17:31:56.513Z,25.20
2022-08-05T17:34:21.190Z,25.15
2022-08-05T17:37:04.630Z,25.09
2022-08-05T17:39:59.838Z,25.01
2022-08-05T17:42:33.040Z,24.93
2022-08-05T17:45:17.700Z,24.86
2022-08-05T17:47:55.816Z,24.80
2022-08-05T17:50:30.574Z,24.72
2022-08-05T17:53:05.145Z,24.65
2022-08-05T17:55:39.987Z,24.57
2022-08-05T17:58:14.573Z,24.50
2022-08-05T18:00:50.942Z,24.45
2022-08-05T18:03:59.394Z,24.39
2022-08-05T18:06:17.679Z,24.34
2022-08-05T18:09:03.804Z,24.30
2022-08-05T18:11:37.981Z,24.26
2022-08-05T18:14:13.363Z,24.22
2022-08-05T18:16:52.905Z,24.15
2022-08-05T18:19:26.192Z,24.09
2022-08-05T18:22:09.061Z,24.03
2022-08-05T18:24:43.867Z,23.97
2022-08-05T18:27:18.912Z,23.92
2022-08-05T18:29:54.558Z,23.85
2022-08-05T18:32:28.018Z,23.80
2022-08-05T18:35:01.254Z,23.76
2022-08-05T18:37:40.360Z,23.73
2022-08-05T18:40:33.986Z,23.68
2022-08-05T18:43:16.474Z,23.65
2022-08-05T18:45:49.523Z,23.65
2022-08-05T18:48:31.563Z,23.66
2022-08-05T18:52:06.089Z,23.63
2022-08-05T18:54:17.030Z,23.59
2022-08-05T18:56:51.307Z,23.51
2022-08-05T18:59:43.587Z,23.44
2022-08-05T19:02:36.622Z,23.37
2022-08-05T19:06:11.238Z,23.33
2022-08-05T19:08:07.520Z,23.29
2022-08-05T19:10:46.066Z,23.23
2022-08-05T19:13:19.739Z,23.16
2022-08-05T19:15:59.221Z,23.15
2022-08-05T19:18:35.918Z,23.09
2022-08-05T19:21:12.197Z,23.09
2022-08-05T19:24:07.389Z,23.05
2022-08-05T19:26:54.382Z,23.02
2022-08-05T19:29:36.023Z,22.96
2022-08-05T19:32:11.757Z,22.93
2022-08-05T19:34:55.104Z,22.88
2022-08-05T19:37:47.031Z,22.84
2022-08-05T19:40:24.220Z,22.77
2022-08-05T19:43:05.493Z,22.71
2022-08-05T19:45:39.930Z,22.69
2022-08-05T19:48:28.659Z,22.61
2022-08-05T19:51:01.033Z,22.57
2022-08-05T19:54:04.162Z,22.54
2022-08-05T19:56:27.543Z,22.45
2022-08-05T19:59:50.933Z,22.37
2022-08-05T20:01:58.241Z,22.33
2022-08-05T20:04:32.158Z,22.31
2022-08-05T20:07:04.778Z,22.28
2022-08-05T20:09:55.092Z,22.26
2022-08-05T20:12:29.110Z,22.23
2022-08-05T20:15:01.579Z,22.21
2022-08-05T20:17:36.501Z,22.17
2022-08-05T20:20:12.171Z,22.14
2022-08-05T20:22:44.630Z,22.08
2022-08-05T20:25:19.424Z,22.08
2022-08-05T20:27:55.850Z,22.07
2022-08-05T20:30:30.447Z,22.03
2022-08-05T20:33:03.127Z,22.03
2022-08-05T20:35:40.440Z,21.99
2022-08-05T20:38:26.892Z,21.98
2022-08-05T20:41:00.806Z,21.97
2022-08-05T20:43:59.550Z,21.88
2022-08-05T20:46:30.101Z,21.87
2022-08-05T20:49:02.738Z,21.81
2022-08-05T20:51:40.414Z,21.79
2022-08-05T20:54:14.125Z,21.76
2022-08-05T20:56:46.857Z,21.75
2022-08-05T20:59:26.267Z,21.73
2022-08-05T21:01:59.603Z,21.70
2022-08-05T21:04:33.077Z,21.69
2022-08-05T21:07:08.870Z,21.66
2022-08-05T21:09:50.117Z,21.56
2022-08-05T21:12:26.308Z,21.60
2022-08-05T21:14:59.823Z,21.56
2022-08-05T21:17:32.769Z,21.54
2022-08-05T21:20:10.165Z,21.51
2022-08-05T21:22:44.643Z,21.49
2022-08-05T21:25:17.113Z,21.46
2022-08-05T21:27:52.687Z,21.42
2022-08-05T21:30:26.006Z,21.42
2022-08-05T21:32:58.786Z,21.10
2022-08-05T21:35:43.813Z,21.37
2022-08-05T21:38:25.778Z,21.33
2022-08-05T21:40:58.355Z,21.29
2022-08-05T21:43:41.492Z,21.25
2022-08-05T21:46:14.366Z,21.26
2022-08-05T21:48:46.878Z,21.24
2022-08-05T21:51:25.021Z,21.24
2022-08-05T21:54:13.572Z,21.22
2022-08-05T21:56:51.460Z,21.21
2022-08-05T21:59:37.794Z,21.20
2022-08-05T22:02:20.164Z,21.14
2022-08-05T22:04:52.730Z,21.17
2022-08-05T22:07:39.300Z,21.14
2022-08-05T22:10:26.550Z,21.12
2022-08-05T22:13:08.680Z,21.11
2022-08-05T22:16:05.040Z,21.07
2022-08-05T22:18:49.011Z,21.05
2022-08-05T22:21:21.881Z,21.03
2022-08-05T22:24:39.800Z,21.01
2022-08-05T22:27:26.237Z,20.97
2022-08-05T22:30:18.795Z,20.93
2022-08-05T22:32:52.429Z,20.92
2022-08-05T22:35:38.643Z,20.88
2022-08-05T22:38:20.270Z,20.86
2022-08-05T22:40:54.845Z,20.82
2022-08-05T22:43:37.170Z,20.80
2022-08-05T22:46:13.223Z,20.75
2022-08-05T22:48:46.598Z,20.74
2022-08-05T22:51:23.278Z,20.73
2022-08-05T22:54:11.326Z,20.67
2022-08-05T22:56:44.345Z,20.68
2022-08-05T22:59:44.008Z,20.64
2022-08-05T23:02:17.376Z,20.59
2022-08-05T23:04:51.140Z,20.57
2022-08-05T23:07:25.146Z,20.54
2022-08-05T23:10:01.227Z,20.53
2022-08-05T23:12:36.078Z,20.51
2022-08-05T23:15:11.873Z,20.50
2022-08-05T23:18:00.996Z,20.47
2022-08-05T23:20:37.247Z,20.49
2022-08-05T23:23:10.233Z,20.49
2022-08-05T23:25:52.860Z,20.45
2022-08-05T23:28:29.347Z,20.42
2022-08-05T23:31:16.580Z,20.39
2022-08-05T23:34:05.689Z,20.32
2022-08-05T23:36:44.197Z,20.34
2022-08-05T23:39:31.879Z,20.31
2022-08-05T23:42:05.250Z,20.31
2022-08-05T23:44:41.365Z,20.25
2022-08-05T23:47:17.103Z,20.26
2022-08-05T23:49:52.130Z,20.23
2022-08-05T23:52:32.182Z,20.22
2022-08-05T23:55:09.890Z,20.20
2022-08-05T23:57:43.386Z,20.20
